Time;durP1;ratioP1;P1;durP2;ratioP2;P2;SDS_P1;SDS_P2;PMS_P1;PMS_P2;Temp;Humidity;BMP_temperature;BMP_pressure;BME280_temperature;BME280_humidity;BME280_pressure;Samples;Min_cycle;Max_cycle;Signal;HPM_P1;HPM_P2
2021/06/10 00:00:30;;;;;;;3.90;1.45;;;14.80;76.30;;;;;;5090848;28;20505;-66
2021/06/10 00:02:56;;;;;;;3.75;1.67;;;14.70;76.50;;;;;;5088816;28;20426;-67
2021/06/10 00:05:22;;;;;;;5.53;1.65;;;14.70;77.10;;;;;;5065218;28;20036;-66
2021/06/10 00:07:50;;;;;;;3.13;1.73;;;14.60;77.70;;;;;;5057432;28;20087;-66
2021/06/10 00:10:18;;;;;;;2.05;1.60;;;14.60;78.20;;;;;;5074520;28;20077;-66
2021/06/10 00:12:44;;;;;;;2.35;1.73;;;14.50;78.60;;;;;;5079208;28;20463;-66
2021/06/10 00:15:14;;;;;;;2.97;1.80;;;14.50;79.00;;;;;;5065937;28;20031;-67
2021/06/10 00:17:41;;;;;;;2.78;1.58;;;14.40;79.20;;;;;;5076460;28;20082;-66
2021/06/10 00:20:09;;;;;;;4.15;1.85;;;14.40;79.40;;;;;;5076815;28;20120;-66
2021/06/10 00:22:35;;;;;;;4.10;1.80;;;14.30;79.80;;;;;;5073544;28;20032;-66
2021/06/10 00:25:00;;;;;;;3.03;2.00;;;14.30;80.20;;;;;;5068277;28;20425;-66
2021/06/10 00:27:26;;;;;;;5.00;1.92;;;14.20;80.60;;;;;;5089420;28;20085;-66
2021/06/10 00:29:52;;;;;;;4.28;1.75;;;14.20;80.80;;;;;;5089456;28;20115;-67
2021/06/10 00:32:18;;;;;;;3.80;2.00;;;14.20;81.00;;;;;;5082703;28;20108;-66
2021/06/10 00:34:44;;;;;;;4.15;2.20;;;14.10;81.10;;;;;;5070971;28;20031;-66
2021/06/10 00:37:11;;;;;;;4.53;2.72;;;14.10;81.20;;;;;;5074991;28;20035;-67
2021/06/10 00:39:37;;;;;;;4.70;2.58;;;14.10;81.30;;;;;;5078197;28;20024;-67
2021/06/10 00:42:04;;;;;;;4.25;3.00;;;14.00;81.60;;;;;;5080484;28;20101;-67
2021/06/10 00:44:29;;;;;;;2.92;2.22;;;14.00;82.10;;;;;;5089573;28;20031;-66
2021/06/10 00:46:55;;;;;;;2.90;2.58;;;14.00;82.60;;;;;;5073687;28;20032;-67
2021/06/10 00:49:20;;;;;;;3.42;3.00;;;13.90;82.80;;;;;;5093300;28;20034;-66
2021/06/10 00:51:46;;;;;;;5.35;3.15;;;13.90;83.00;;;;;;5063295;28;20025;-67
2021/06/10 00:54:11;;;;;;;4.38;3.13;;;13.80;83.20;;;;;;5070707;28;20504;-66
2021/06/10 00:56:37;;;;;;;6.57;3.00;;;13.80;83.40;;;;;;5083166;28;20436;-66
2021/06/10 00:59:03;;;;;;;4.18;3.20;;;13.80;83.80;;;;;;5088518;28;20120;-66
2021/06/10 01:01:29;;;;;;;5.53;3.20;;;13.80;84.00;;;;;;5090900;28;20137;-66
2021/06/10 01:03:54;;;;;;;4.03;3.00;;;13.80;84.30;;;;;;5091047;28;20032;-66
2021/06/10 01:06:57;;;;;;;4.75;3.13;;;13.70;84.60;;;;;;5088539;28;20027;-66
2021/06/10 01:09:39;;;;;;;3.17;2.70;;;13.80;84.90;;;;;;5076232;28;20020;-66
2021/06/10 01:12:24;;;;;;;5.40;3.15;;;13.70;85.40;;;;;;5079121;28;20020;-66
2021/06/10 01:15:07;;;;;;;5.45;3.20;;;13.70;85.50;;;;;;5087797;28;20089;-66
2021/06/10 01:17:42;;;;;;;5.20;2.70;;;13.60;85.90;;;;;;5081614;28;20082;-66
2021/06/10 01:20:15;;;;;;;3.75;2.95;;;13.60;86.20;;;;;;5079557;28;20471;-66
2021/06/10 01:22:58;;;;;;;4.70;3.70;;;13.50;86.40;;;;;;5073782;28;20040;-66
2021/06/10 01:25:56;;;;;;;5.18;3.60;;;13.50;86.50;;;;;;5058693;28;20105;-67
2021/06/10 01:28:28;;;;;;;7.53;3.60;;;13.50;86.60;;;;;;5063373;28;20029;-66
2021/06/10 01:30:58;;;;;;;3.97;3.30;;;13.40;86.90;;;;;;5091454;28;20035;-66
2021/06/10 01:33:33;;;;;;;4.47;3.28;;;13.40;87.00;;;;;;5077845;28;20043;-66
2021/06/10 01:36:04;;;;;;;6.70;3.08;;;13.40;87.40;;;;;;5089492;28;20039;-66
2021/06/10 01:38:31;;;;;;;4.43;3.60;;;13.40;87.60;;;;;;5082510;28;20453;-66
2021/06/10 01:40:58;;;;;;;4.35;3.42;;;13.40;87.80;;;;;;5082014;28;20028;-67
2021/06/10 01:43:27;;;;;;;6.35;3.80;;;13.30;88.50;;;;;;5062497;28;20081;-66
2021/06/10 01:45:56;;;;;;;6.43;3.88;;;13.30;88.10;;;;;;5085309;28;20039;-67
2021/06/10 01:48:23;;;;;;;7.53;4.07;;;13.30;88.10;;;;;;5073121;28;20031;-66
2021/06/10 01:50:51;;;;;;;6.68;3.85;;;13.30;88.10;;;;;;5086776;28;20028;-66
2021/06/10 01:53:17;;;;;;;5.20;4.00;;;13.30;88.10;;;;;;5085302;28;20047;-67
2021/06/10 01:55:45;;;;;;;8.73;4.57;;;13.30;88.10;;;;;;5089172;28;20587;-66
2021/06/10 01:58:11;;;;;;;5.60;4.10;;;13.30;88.10;;;;;;5081787;28;20112;-66
2021/06/10 02:00:38;;;;;;;5.38;3.80;;;13.30;88.10;;;;;;5085829;28;20063;-66
2021/06/10 02:03:04;;;;;;;3.03;2.72;;;13.30;88.40;;;;;;5073111;28;20108;-67
2021/06/10 02:05:34;;;;;;;4.57;3.83;;;13.30;88.60;;;;;;5083581;28;20020;-66
2021/06/10 02:08:00;;;;;;;4.13;2.88;;;13.30;88.80;;;;;;5079881;28;20492;-66
2021/06/10 02:10:27;;;;;;;6.55;4.07;;;13.30;88.90;;;;;;5081741;28;20028;-66
2021/06/10 02:12:54;;;;;;;5.05;4.30;;;13.30;89.00;;;;;;5066618;28;20380;-66
2021/06/10 02:15:20;;;;;;;4.95;3.92;;;13.30;89.00;;;;;;5065331;28;20028;-66
2021/06/10 02:17:48;;;;;;;6.18;3.88;;;13.20;89.10;;;;;;5083922;28;20025;-67
2021/06/10 02:20:15;;;;;;;7.50;3.72;;;13.30;89.40;;;;;;5077684;28;20021;-66
2021/06/10 02:22:41;;;;;;;6.18;4.35;;;13.20;89.70;;;;;;5063720;28;20104;-67
2021/06/10 02:25:07;;;;;;;5.72;4.55;;;13.20;89.70;;;;;;5085373;28;20103;-66
2021/06/10 02:27:33;;;;;;;4.85;3.65;;;13.20;89.90;;;;;;5066898;28;20030;-66
2021/06/10 02:29:59;;;;;;;4.82;3.85;;;13.20;90.00;;;;;;5085397;28;20028;-66
2021/06/10 02:32:24;;;;;;;4.88;4.38;;;13.10;90.00;;;;;;5076515;28;20118;-67
2021/06/10 02:34:51;;;;;;;4.63;3.78;;;13.10;90.10;;;;;;5086537;28;20519;-66
2021/06/10 02:37:18;;;;;;;4.30;3.90;;;13.10;90.20;;;;;;5084947;28;21069;-66
2021/06/10 02:39:46;;;;;;;5.82;4.50;;;13.10;90.20;;;;;;5088609;28;20028;-66
2021/06/10 02:42:13;;;;;;;8.05;4.78;;;13.10;90.30;;;;;;5089491;28;20066;-66
2021/06/10 02:44:43;;;;;;;5.07;4.53;;;13.10;90.30;;;;;;5090703;28;20127;-66
2021/06/10 02:47:10;;;;;;;5.78;4.63;;;13.10;90.40;;;;;;5094125;28;20017;-66
2021/06/10 02:49:36;;;;;;;5.38;4.55;;;13.10;90.50;;;;;;5076362;28;20206;-66
2021/06/10 02:52:05;;;;;;;7.07;5.07;;;13.10;90.60;;;;;;5086494;28;20029;-66
2021/06/10 02:54:32;;;;;;;7.25;5.13;;;13.10;90.70;;;;;;5092560;28;20040;-66
2021/06/10 02:56:58;;;;;;;5.97;4.60;;;13.10;90.80;;;;;;5075011;28;20090;-66
2021/06/10 02:59:25;;;;;;;6.45;5.03;;;13.10;90.90;;;;;;5077497;28;20044;-67
2021/06/10 03:01:52;;;;;;;7.32;5.55;;;13.10;91.00;;;;;;5075551;28;20425;-66
2021/06/10 03:04:17;;;;;;;6.97;5.88;;;13.00;91.10;;;;;;5080278;28;20032;-66
2021/06/10 03:06:44;;;;;;;5.80;4.80;;;13.10;91.30;;;;;;5076946;28;20039;-66
2021/06/10 03:09:11;;;;;;;5.80;4.00;;;13.00;91.30;;;;;;5076824;28;20032;-66
2021/06/10 03:11:39;;;;;;;7.70;4.88;;;13.00;91.30;;;;;;5080978;28;20024;-66
2021/06/10 03:14:08;;;;;;;5.10;4.60;;;13.00;91.40;;;;;;5080760;28;20471;-66
2021/06/10 03:16:35;;;;;;;9.15;5.88;;;13.00;91.50;;;;;;5076697;28;20055;-66
2021/06/10 03:19:01;;;;;;;5.75;5.00;;;13.00;91.60;;;;;;5079330;28;20021;-67
2021/06/10 03:21:28;;;;;;;9.80;6.65;;;13.00;91.70;;;;;;5093189;28;20103;-66
2021/06/10 03:23:53;;;;;;;7.50;5.70;;;12.90;91.80;;;;;;5094118;28;20486;-66
2021/06/10 03:26:21;;;;;;;9.80;7.03;;;12.90;91.80;;;;;;5074709;28;20042;-66
2021/06/10 03:28:47;;;;;;;7.43;5.82;;;12.90;91.90;;;;;;5089945;28;20386;-66
2021/06/10 03:31:13;;;;;;;8.18;6.03;;;12.90;92.00;;;;;;5089696;28;20024;-66
2021/06/10 03:33:39;;;;;;;5.68;5.07;;;12.90;92.10;;;;;;5087134;28;20399;-66
2021/06/10 03:36:08;;;;;;;5.07;4.53;;;12.90;92.10;;;;;;5093269;28;20103;-66
2021/06/10 03:38:34;;;;;;;7.40;4.45;;;12.90;92.00;;;;;;5066171;28;20033;-66
2021/06/10 03:41:01;;;;;;;9.25;5.60;;;12.90;92.00;;;;;;5093462;28;20459;-66
2021/06/10 03:43:27;;;;;;;5.88;4.35;;;12.80;92.10;;;;;;5090169;28;20046;-66
2021/06/10 03:45:54;;;;;;;7.65;6.07;;;12.80;92.10;;;;;;5077967;28;20477;-66
2021/06/10 03:48:19;;;;;;;9.27;5.25;;;12.80;92.20;;;;;;5086464;28;20110;-66
2021/06/10 03:50:47;;;;;;;9.00;5.80;;;12.80;92.30;;;;;;5057072;28;20112;-66
2021/06/10 03:53:12;;;;;;;8.68;5.70;;;12.80;92.30;;;;;;5083226;28;20514;-66
2021/06/10 03:55:39;;;;;;;8.13;6.22;;;12.90;92.30;;;;;;5079464;28;20113;-66
2021/06/10 03:58:05;;;;;;;10.35;6.82;;;12.90;92.40;;;;;;5077459;28;20024;-66
2021/06/10 04:00:31;;;;;;;9.52;7.25;;;12.90;92.40;;;;;;5087553;28;20036;-66
2021/06/10 04:02:58;;;;;;;10.98;7.85;;;12.90;92.40;;;;;;5094702;28;20042;-66
2021/06/10 04:05:26;;;;;;;7.75;6.95;;;13.00;92.40;;;;;;5081974;28;20032;-66
2021/06/10 04:07:54;;;;;;;10.45;7.30;;;13.00;92.40;;;;;;5084062;28;20028;-66
2021/06/10 04:10:20;;;;;;;6.50;5.63;;;13.00;92.50;;;;;;5078583;28;20056;-66
2021/06/10 04:12:45;;;;;;;8.70;6.72;;;13.00;92.50;;;;;;5089149;28;20093;-66
2021/06/10 04:15:11;;;;;;;9.88;6.93;;;13.10;92.50;;;;;;5073928;28;20107;-66
2021/06/10 04:17:37;;;;;;;8.52;7.63;;;13.20;92.80;;;;;;5094549;28;20082;-66
2021/06/10 04:20:04;;;;;;;6.68;6.05;;;13.20;92.50;;;;;;5087633;28;20457;-67
2021/06/10 04:22:30;;;;;;;8.50;5.95;;;13.30;92.40;;;;;;5081574;28;20081;-66
2021/06/10 04:24:55;;;;;;;7.45;6.20;;;13.30;92.40;;;;;;5076740;28;20032;-66
2021/06/10 04:27:21;;;;;;;9.95;6.45;;;13.30;92.30;;;;;;5086622;28;20561;-66
2021/06/10 04:29:46;;;;;;;11.10;8.02;;;13.40;92.30;;;;;;5086043;28;20028;-66
2021/06/10 04:32:12;;;;;;;9.10;8.20;;;13.40;92.30;;;;;;5092773;28;20040;-66
2021/06/10 04:34:37;;;;;;;10.80;8.40;;;13.50;92.30;;;;;;5073061;28;20016;-66
2021/06/10 04:37:03;;;;;;;8.68;7.78;;;13.60;92.20;;;;;;5091927;28;20028;-66
2021/06/10 04:39:29;;;;;;;12.88;8.40;;;13.70;92.00;;;;;;5092550;28;20055;-66
2021/06/10 04:41:54;;;;;;;11.93;9.10;;;13.90;91.90;;;;;;5081293;28;20040;-67
2021/06/10 04:44:20;;;;;;;9.63;8.60;;;14.00;91.80;;;;;;5093544;28;20032;-66
2021/06/10 04:46:45;;;;;;;11.68;9.00;;;14.10;91.70;;;;;;5085622;28;20029;-66
2021/06/10 04:49:12;;;;;;;11.25;9.38;;;14.20;91.60;;;;;;5091274;28;20020;-66
2021/06/10 04:51:38;;;;;;;9.48;8.48;;;14.30;91.50;;;;;;5083592;28;20546;-66
2021/06/10 04:54:03;;;;;;;9.57;7.68;;;14.60;91.70;;;;;;5082210;28;20052;-66
2021/06/10 04:56:29;;;;;;;8.80;7.55;;;15.00;91.70;;;;;;5082784;28;20033;-66
2021/06/10 04:58:55;;;;;;;10.00;7.18;;;15.40;91.60;;;;;;5076580;28;20113;-67
2021/06/10 05:01:20;;;;;;;15.20;8.40;;;15.90;91.30;;;;;;5078575;28;20059;-67
2021/06/10 05:03:46;;;;;;;9.85;8.35;;;16.40;90.90;;;;;;5065308;28;20169;-67
2021/06/10 05:06:11;;;;;;;9.40;8.02;;;16.80;90.40;;;;;;5079370;28;20028;-67
2021/06/10 05:08:37;;;;;;;9.32;7.30;;;17.30;90.00;;;;;;5067484;28;20028;-67
2021/06/10 05:11:02;;;;;;;9.18;8.00;;;17.70;89.00;;;;;;5076963;28;20028;-66
2021/06/10 05:13:28;;;;;;;10.23;7.45;;;18.10;87.30;;;;;;5085101;28;20031;-66
2021/06/10 05:15:54;;;;;;;9.27;6.47;;;18.50;85.70;;;;;;5078816;28;20104;-66
2021/06/10 05:18:20;;;;;;;7.15;6.43;;;18.90;84.50;;;;;;5079382;28;20032;-66
2021/06/10 05:20:46;;;;;;;8.75;7.20;;;19.30;83.00;;;;;;5068905;28;20396;-66
2021/06/10 05:23:11;;;;;;;9.32;7.65;;;19.60;81.90;;;;;;5078941;28;20093;-66
2021/06/10 05:25:37;;;;;;;7.72;6.93;;;19.90;80.10;;;;;;5079392;28;20040;-66
2021/06/10 05:28:02;;;;;;;8.05;7.25;;;20.10;78.70;;;;;;5090902;28;20028;-66
2021/06/10 05:30:28;;;;;;;7.65;6.70;;;20.30;77.50;;;;;;5085155;28;20082;-66
2021/06/10 05:32:54;;;;;;;9.90;7.55;;;20.50;76.40;;;;;;5076398;28;20103;-67
2021/06/10 05:35:20;;;;;;;8.80;7.85;;;20.70;75.70;;;;;;5083626;28;20025;-66
2021/06/10 05:37:45;;;;;;;8.05;6.43;;;21.00;74.60;;;;;;5087438;28;20028;-66
2021/06/10 05:40:11;;;;;;;9.98;7.53;;;21.10;73.90;;;;;;5088234;28;20118;-66
2021/06/10 05:42:38;;;;;;;9.48;7.03;;;21.40;73.40;;;;;;5085386;28;20028;-66
2021/06/10 05:45:05;;;;;;;8.27;7.05;;;21.60;72.30;;;;;;5087509;28;20491;-66
2021/06/10 05:47:30;;;;;;;8.93;7.65;;;21.70;71.40;;;;;;5082706;28;20043;-66
2021/06/10 05:49:56;;;;;;;12.38;9.48;;;21.70;70.80;;;;;;5080098;28;20036;-66
2021/06/10 05:52:23;;;;;;;10.43;8.07;;;21.80;70.20;;;;;;5086847;28;20032;-65
2021/06/10 05:54:49;;;;;;;10.52;9.23;;;21.80;69.70;;;;;;5080535;28;20086;-67
2021/06/10 05:57:15;;;;;;;9.98;8.95;;;21.70;69.40;;;;;;5086589;28;20082;-66
2021/06/10 05:59:40;;;;;;;10.57;8.80;;;21.70;69.20;;;;;;5085967;28;20074;-66
2021/06/10 06:02:06;;;;;;;10.48;9.35;;;21.60;69.00;;;;;;5061470;28;20024;-66
2021/06/10 06:04:31;;;;;;;9.88;8.85;;;21.60;69.20;;;;;;5068812;28;20027;-66
2021/06/10 06:06:57;;;;;;;11.15;8.85;;;21.60;69.30;;;;;;5088334;28;20032;-66
2021/06/10 06:09:22;;;;;;;10.18;8.13;;;21.60;69.10;;;;;;5088362;28;20381;-66
2021/06/10 06:11:51;;;;;;;9.77;7.90;;;21.50;69.00;;;;;;5091459;28;20034;-65
2021/06/10 06:14:18;;;;;;;11.48;6.88;;;21.60;68.70;;;;;;5092804;28;20016;-66
2021/06/10 06:16:44;;;;;;;8.60;7.03;;;21.60;68.30;;;;;;5089319;28;20090;-66
2021/06/10 06:19:12;;;;;;;7.93;6.22;;;21.60;68.20;;;;;;5089427;28;20031;-66
2021/06/10 06:21:42;;;;;;;7.20;6.07;;;21.70;67.10;;;;;;5083858;28;20028;-67
2021/06/10 06:24:11;;;;;;;8.80;5.20;;;21.80;66.10;;;;;;5090540;28;20440;-67
2021/06/10 06:26:36;;;;;;;6.30;5.57;;;21.90;65.30;;;;;;5090885;28;20043;-67
2021/06/10 06:29:03;;;;;;;9.65;5.45;;;22.00;64.90;;;;;;5068525;28;20029;-67
2021/06/10 06:31:30;;;;;;;7.00;4.20;;;22.00;64.70;;;;;;5091131;28;20025;-67
2021/06/10 06:33:56;;;;;;;6.03;4.03;;;22.10;63.10;;;;;;5091911;28;20497;-67
2021/06/10 06:36:21;;;;;;;4.55;3.67;;;22.20;61.90;;;;;;5088742;28;20024;-67
2021/06/10 06:38:48;;;;;;;4.63;3.55;;;22.20;60.10;;;;;;5073264;28;20517;-67
2021/06/10 06:41:13;;;;;;;5.32;3.97;;;22.20;58.80;;;;;;5087468;28;20047;-67
2021/06/10 06:43:39;;;;;;;3.83;2.45;;;22.10;59.40;;;;;;5080146;28;20028;-67
2021/06/10 06:46:06;;;;;;;9.13;3.60;;;22.20;58.50;;;;;;5092085;28;20115;-67
2021/06/10 06:48:33;;;;;;;3.70;2.45;;;22.20;58.10;;;;;;5087224;28;20024;-67
2021/06/10 06:51:00;;;;;;;5.47;3.72;;;22.20;57.50;;;;;;5086245;28;20396;-67
2021/06/10 06:53:31;;;;;;;3.50;2.53;;;22.30;57.50;;;;;;5088485;28;20040;-67
2021/06/10 06:55:57;;;;;;;5.20;2.45;;;22.40;56.80;;;;;;5090347;28;20032;-67
2021/06/10 06:58:23;;;;;;;3.42;2.05;;;22.50;56.50;;;;;;5092106;28;20490;-67
2021/06/10 07:00:48;;;;;;;3.00;2.10;;;22.50;55.50;;;;;;5087892;28;20066;-67
2021/06/10 07:03:14;;;;;;;5.43;1.52;;;22.60;53.90;;;;;;5092012;28;20024;-67
2021/06/10 07:05:40;;;;;;;3.45;2.35;;;22.60;52.30;;;;;;5094134;28;20028;-67
2021/06/10 07:08:05;;;;;;;4.10;2.03;;;22.60;52.00;;;;;;5091912;28;20032;-67
2021/06/10 07:10:31;;;;;;;4.40;2.30;;;22.60;51.20;;;;;;5082785;28;20662;-67
2021/06/10 07:12:56;;;;;;;2.80;2.17;;;22.60;51.90;;;;;;5076479;28;20032;-67
2021/06/10 07:15:23;;;;;;;4.95;2.20;;;22.60;52.10;;;;;;5093996;28;20028;-67
2021/06/10 07:17:48;;;;;;;4.28;2.45;;;22.70;52.00;;;;;;5095183;28;20032;-67
2021/06/10 07:20:14;;;;;;;3.15;2.13;;;22.60;52.10;;;;;;5093470;28;20131;-66
2021/06/10 07:22:41;;;;;;;2.92;2.63;;;22.60;52.10;;;;;;5092878;28;20425;-67
2021/06/10 07:25:08;;;;;;;5.70;3.05;;;22.70;52.00;;;;;;5091147;28;20028;-67
2021/06/10 07:27:34;;;;;;;3.67;2.55;;;22.70;52.00;;;;;;5094091;28;20052;-66
2021/06/10 07:30:00;;;;;;;4.05;2.33;;;22.80;52.50;;;;;;5092487;28;20481;-66
2021/06/10 07:32:26;;;;;;;4.20;2.70;;;22.90;52.80;;;;;;5093381;28;20028;-65
2021/06/10 07:34:52;;;;;;;3.75;2.20;;;23.10;53.30;;;;;;5093242;28;20024;-66
2021/06/10 07:37:18;;;;;;;3.13;2.15;;;23.20;53.10;;;;;;5091752;28;20047;-66
2021/06/10 07:39:44;;;;;;;5.05;2.15;;;23.30;52.70;;;;;;5093829;28;20023;-66
2021/06/10 07:42:10;;;;;;;5.70;1.70;;;23.40;52.80;;;;;;5092587;28;20023;-66
2021/06/10 07:44:36;;;;;;;3.97;2.50;;;23.50;52.60;;;;;;5077876;28;20124;-65
2021/06/10 07:47:02;;;;;;;3.63;2.53;;;23.50;52.40;;;;;;5074757;28;20028;-65
2021/06/10 07:49:27;;;;;;;3.63;2.38;;;23.40;52.10;;;;;;5084628;28;20020;-65
2021/06/10 07:51:53;;;;;;;3.28;2.05;;;23.40;52.00;;;;;;5094751;28;20036;-65
2021/06/10 07:54:18;;;;;;;4.22;1.80;;;23.30;52.00;;;;;;5094649;28;20190;-65
2021/06/10 07:56:44;;;;;;;5.32;2.10;;;23.30;51.10;;;;;;5092754;28;20028;-65
2021/06/10 07:59:10;;;;;;;4.22;2.35;;;23.40;51.50;;;;;;5092869;28;20062;-65
2021/06/10 08:01:37;;;;;;;6.63;2.00;;;23.50;50.90;;;;;;5081063;28;20394;-66
2021/06/10 08:04:03;;;;;;;3.08;1.77;;;23.50;50.40;;;;;;5093497;28;20510;-66
2021/06/10 08:06:28;;;;;;;3.60;2.22;;;23.60;50.50;;;;;;5093726;28;20060;-65
2021/06/10 08:08:54;;;;;;;5.00;2.40;;;23.70;50.20;;;;;;5094374;28;20033;-66
2021/06/10 08:11:19;;;;;;;4.88;1.95;;;23.70;50.40;;;;;;5093817;28;20107;-66
2021/06/10 08:13:45;;;;;;;3.92;3.00;;;23.70;50.40;;;;;;5094933;28;20149;-66
2021/06/10 08:16:10;;;;;;;4.65;2.83;;;23.70;50.10;;;;;;5091331;28;20477;-66
2021/06/10 08:18:36;;;;;;;4.90;2.33;;;23.70;50.80;;;;;;5091510;28;20525;-65
2021/06/10 08:21:02;;;;;;;3.65;2.35;;;23.70;51.20;;;;;;5092650;28;20035;-66
2021/06/10 08:23:29;;;;;;;3.90;2.53;;;23.80;51.90;;;;;;5093262;28;20115;-65
2021/06/10 08:25:57;;;;;;;3.75;2.38;;;23.90;51.10;;;;;;5092075;28;20050;-65
2021/06/10 08:28:24;;;;;;;4.90;3.13;;;23.90;50.80;;;;;;5092257;28;20058;-65
2021/06/10 08:30:50;;;;;;;5.13;2.67;;;23.80;51.00;;;;;;5092056;28;20020;-65
2021/06/10 08:33:17;;;;;;;3.88;3.30;;;23.90;50.90;;;;;;5092317;28;20099;-66
2021/06/10 08:35:43;;;;;;;6.63;4.25;;;23.90;50.60;;;;;;5092796;28;20106;-66
2021/06/10 08:38:09;;;;;;;4.50;2.75;;;24.00;50.70;;;;;;5084141;28;20120;-66
2021/06/10 08:40:37;;;;;;;4.63;3.63;;;24.00;51.40;;;;;;5092799;28;20416;-66
2021/06/10 08:43:04;;;;;;;5.35;3.42;;;24.00;51.70;;;;;;5094117;28;20028;-66
2021/06/10 08:45:30;;;;;;;5.75;3.97;;;24.10;52.80;;;;;;5092800;28;20034;-66
2021/06/10 08:47:58;;;;;;;5.35;3.40;;;24.30;52.60;;;;;;5089334;28;20028;-66
2021/06/10 08:50:26;;;;;;;4.93;3.05;;;24.50;52.60;;;;;;5092145;28;20016;-66
2021/06/10 08:52:56;;;;;;;5.45;3.65;;;24.70;53.40;;;;;;5093405;28;20024;-66
2021/06/10 08:55:23;;;;;;;7.70;3.33;;;24.70;52.50;;;;;;5092240;28;20028;-66
2021/06/10 08:57:49;;;;;;;4.63;3.10;;;24.70;52.20;;;;;;5092917;28;20028;-66
2021/06/10 09:00:15;;;;;;;5.60;3.78;;;24.70;52.00;;;;;;5092172;28;20036;-66
2021/06/10 09:02:49;;;;;;;5.38;4.07;;;24.80;52.00;;;;;;5091481;28;20547;-66
2021/06/10 09:05:17;;;;;;;4.35;3.78;;;24.80;52.00;;;;;;5092330;28;20043;-66
2021/06/10 09:07:49;;;;;;;5.43;3.63;;;24.80;51.90;;;;;;5093375;28;20028;-66
2021/06/10 09:10:15;;;;;;;5.70;3.55;;;24.90;52.00;;;;;;5092656;28;20137;-66
2021/06/10 09:12:53;;;;;;;4.05;3.65;;;25.00;52.40;;;;;;5093386;28;20028;-66
2021/06/10 09:15:20;;;;;;;9.10;4.20;;;25.10;52.80;;;;;;5091980;28;20028;-66
2021/06/10 09:17:47;;;;;;;5.03;4.03;;;25.20;52.50;;;;;;5089958;28;20028;-66
2021/06/10 09:20:19;;;;;;;6.57;4.30;;;25.30;52.00;;;;;;5091829;28;20029;-66
2021/06/10 09:22:45;;;;;;;4.63;3.50;;;25.40;52.00;;;;;;5092767;28;20039;-66
2021/06/10 09:25:16;;;;;;;7.75;3.80;;;25.40;52.00;;;;;;5090306;28;20044;-66
2021/06/10 09:27:55;;;;;;;5.43;3.65;;;25.40;52.30;;;;;;5079601;28;20024;-66
2021/06/10 09:30:52;;;;;;;5.53;3.63;;;25.40;52.90;;;;;;5092084;28;20050;-66
2021/06/10 09:33:20;;;;;;;4.32;3.90;;;25.50;52.50;;;;;;5086876;28;20101;-66
2021/06/10 09:35:46;;;;;;;4.82;4.28;;;25.60;52.00;;;;;;5090604;28;20030;-67
2021/06/10 09:38:21;;;;;;;6.20;4.57;;;25.70;51.50;;;;;;5088905;28;20391;-66
2021/06/10 09:40:52;;;;;;;7.28;4.93;;;25.80;52.40;;;;;;5092596;28;20096;-66
2021/06/10 09:43:19;;;;;;;7.50;5.18;;;25.80;52.30;;;;;;5092925;28;20024;-66
2021/06/10 09:45:54;;;;;;;5.90;4.18;;;25.80;51.90;;;;;;5092126;28;20012;-66
2021/06/10 09:48:32;;;;;;;7.00;4.75;;;25.80;52.70;;;;;;5088561;28;20442;-66
2021/06/10 09:50:59;;;;;;;5.90;5.03;;;25.80;52.30;;;;;;5092747;28;20024;-66
2021/06/10 09:53:28;;;;;;;6.13;5.53;;;25.70;52.00;;;;;;5093157;28;20044;-66
2021/06/10 09:56:13;;;;;;;7.85;5.80;;;25.70;52.40;;;;;;5092285;28;20079;-66
2021/06/10 09:58:41;;;;;;;8.48;5.30;;;25.50;52.40;;;;;;5091816;28;20382;-66
2021/06/10 10:01:16;;;;;;;8.15;4.68;;;25.50;52.90;;;;;;5089983;28;20039;-66
2021/06/10 10:03:44;;;;;;;8.40;6.25;;;25.40;53.50;;;;;;5092142;28;20130;-66
2021/06/10 10:08:47;;;;;;;5.95;5.35;;;25.30;53.10;;;;;;5092023;28;20032;-66
2021/06/10 10:11:14;;;;;;;6.72;5.78;;;25.30;52.70;;;;;;5091950;28;20470;-66
2021/06/10 10:13:41;;;;;;;8.32;5.50;;;25.40;52.60;;;;;;5092764;28;20030;-66
2021/06/10 10:16:07;;;;;;;7.60;5.70;;;25.40;51.70;;;;;;5087925;28;20028;-66
2021/06/10 10:18:33;;;;;;;5.40;4.53;;;25.40;51.20;;;;;;5087802;28;20043;-66
2021/06/10 10:21:04;;;;;;;5.20;4.05;;;25.50;52.30;;;;;;5090322;28;20089;-66
2021/06/10 10:23:31;;;;;;;5.70;4.00;;;25.60;52.40;;;;;;5074260;28;20024;-66
2021/06/10 10:26:06;;;;;;;4.95;4.20;;;25.70;52.60;;;;;;5091442;28;20126;-66
2021/06/10 10:28:35;;;;;;;5.20;4.03;;;25.80;53.20;;;;;;5091172;28;20559;-66
2021/06/10 10:31:04;;;;;;;7.57;6.70;;;25.80;53.20;;;;;;5086966;28;20027;-66
2021/06/10 10:33:30;;;;;;;5.95;5.15;;;25.80;52.00;;;;;;5090409;28;20086;-66
2021/06/10 10:36:03;;;;;;;4.50;4.03;;;25.70;52.50;;;;;;5090816;28;20051;-66
2021/06/10 10:38:40;;;;;;;8.25;5.45;;;25.60;52.30;;;;;;5088870;28;20122;-66
2021/06/10 10:41:18;;;;;;;5.32;4.82;;;25.50;51.70;;;;;;5094567;28;20436;-66
2021/06/10 10:43:45;;;;;;;5.07;4.47;;;25.50;51.90;;;;;;5086634;28;20020;-66
2021/06/10 10:46:18;;;;;;;6.25;4.55;;;25.60;51.80;;;;;;5094481;28;20028;-66
2021/06/10 10:48:56;;;;;;;4.93;4.28;;;25.60;52.20;;;;;;5085376;28;20062;-66
2021/06/10 10:51:23;;;;;;;7.90;3.65;;;25.70;50.60;;;;;;5096003;28;20098;-66
2021/06/10 10:53:54;;;;;;;9.77;4.13;;;25.70;51.10;;;;;;5090458;28;20509;-66
2021/06/10 10:56:22;;;;;;;5.20;4.47;;;25.70;50.80;;;;;;5092280;28;20038;-66
2021/06/10 10:59:12;;;;;;;4.85;3.63;;;25.60;50.20;;;;;;5095450;28;20103;-66
2021/06/10 11:01:38;;;;;;;5.20;4.10;;;25.60;50.50;;;;;;5095531;28;20032;-66
2021/06/10 11:04:04;;;;;;;6.53;4.82;;;25.60;50.40;;;;;;5095591;28;20046;-67
2021/06/10 11:06:30;;;;;;;6.07;4.82;;;25.70;50.70;;;;;;5095618;28;20410;-66
2021/06/10 11:09:12;;;;;;;5.18;4.68;;;25.80;50.70;;;;;;5091258;28;20028;-67
2021/06/10 11:11:55;;;;;;;7.40;6.40;;;25.80;51.10;;;;;;5072587;28;20028;-67
2021/06/10 11:14:40;;;;;;;6.97;5.93;;;25.90;50.10;;;;;;5092990;28;20089;-66
2021/06/10 11:17:20;;;;;;;5.78;5.18;;;25.90;50.00;;;;;;5095615;28;20031;-67
2021/06/10 11:20:07;;;;;;;6.22;5.63;;;25.90;50.60;;;;;;5093122;28;20086;-66
2021/06/10 11:22:39;;;;;;;8.73;5.43;;;26.00;50.40;;;;;;5057111;28;20040;-66
2021/06/10 11:25:33;;;;;;;9.02;6.05;;;25.90;51.80;;;;;;5094858;28;20072;-66
2021/06/10 11:28:10;;;;;;;10.10;7.85;;;26.10;51.30;;;;;;5065429;28;20036;-66
2021/06/10 11:30:37;;;;;;;9.80;7.45;;;26.10;50.30;;;;;;5077183;28;20077;-66
2021/06/10 11:33:23;;;;;;;10.35;8.57;;;26.10;51.30;;;;;;5094623;28;20024;-66
2021/06/10 11:35:54;;;;;;;10.93;7.28;;;26.20;49.90;;;;;;5095165;28;20035;-66
2021/06/10 11:38:28;;;;;;;9.27;7.82;;;26.30;50.70;;;;;;5070993;28;20071;-66
2021/06/10 11:40:53;;;;;;;10.13;7.65;;;26.40;50.50;;;;;;5088274;28;20058;-67
2021/06/10 11:43:20;;;;;;;11.98;8.98;;;26.50;50.20;;;;;;5094958;28;20466;-67
2021/06/10 11:45:47;;;;;;;12.13;9.07;;;26.70;49.90;;;;;;5076766;28;20406;-66
2021/06/10 11:48:12;;;;;;;10.75;9.07;;;26.80;49.50;;;;;;5093079;28;20509;-66
2021/06/10 11:50:41;;;;;;;9.95;8.73;;;26.80;49.10;;;;;;5093888;28;20035;-66
2021/06/10 11:53:09;;;;;;;9.63;8.63;;;26.90;49.30;;;;;;5088863;28;20040;-66
2021/06/10 11:55:37;;;;;;;7.95;6.60;;;26.90;50.00;;;;;;5094661;28;20051;-66
2021/06/10 11:58:07;;;;;;;8.45;6.82;;;26.90;50.70;;;;;;5093955;28;20474;-66
2021/06/10 12:00:36;;;;;;;9.95;7.90;;;27.00;50.70;;;;;;5094008;28;20060;-66
2021/06/10 12:03:05;;;;;;;10.80;8.82;;;27.30;49.30;;;;;;5089457;28;20036;-67
2021/06/10 12:05:33;;;;;;;10.38;9.27;;;27.40;48.20;;;;;;5092694;28;20097;-67
2021/06/10 12:08:10;;;;;;;10.30;8.55;;;27.50;48.10;;;;;;5089248;28;20070;-67
2021/06/10 12:10:36;;;;;;;9.55;8.63;;;27.60;47.90;;;;;;5094502;28;20028;-67
2021/06/10 12:13:05;;;;;;;12.27;10.55;;;27.70;48.70;;;;;;5091032;28;20025;-67
2021/06/10 12:15:38;;;;;;;9.43;8.40;;;27.70;47.60;;;;;;5074184;28;20463;-67
2021/06/10 12:18:07;;;;;;;10.90;9.68;;;27.60;47.60;;;;;;5086207;28;20028;-66
2021/06/10 12:20:39;;;;;;;9.95;8.90;;;27.50;47.10;;;;;;5094136;28;20059;-67
2021/06/10 12:23:17;;;;;;;11.00;9.32;;;27.40;47.50;;;;;;5092127;28;20023;-66
2021/06/10 12:25:59;;;;;;;9.20;8.23;;;27.30;47.60;;;;;;5082767;28;20104;-67
2021/06/10 12:28:32;;;;;;;8.68;7.72;;;27.20;48.10;;;;;;5074047;28;20059;-67
2021/06/10 12:31:07;;;;;;;9.10;6.93;;;27.30;48.10;;;;;;5073972;28;20328;-67
2021/06/10 12:33:34;;;;;;;11.20;8.63;;;27.40;48.40;;;;;;5088383;28;20024;-67
2021/06/10 12:36:00;;;;;;;9.23;8.32;;;27.50;46.50;;;;;;5086982;28;20024;-67
2021/06/10 12:38:35;;;;;;;8.40;7.60;;;27.40;45.90;;;;;;5079439;28;20102;-68
2021/06/10 12:41:11;;;;;;;9.07;8.18;;;27.50;47.20;;;;;;5072562;28;20034;-67
2021/06/10 12:43:37;;;;;;;9.43;8.43;;;27.70;47.30;;;;;;5092861;28;20047;-67
2021/06/10 12:46:04;;;;;;;11.38;9.98;;;27.80;46.80;;;;;;5091032;28;20027;-67
2021/06/10 12:48:31;;;;;;;14.10;10.52;;;27.90;46.30;;;;;;5064582;28;20020;-67
2021/06/10 12:51:16;;;;;;;15.23;11.48;;;27.90;46.00;;;;;;5074820;28;20374;-67
2021/06/10 12:53:56;;;;;;;10.10;9.10;;;27.70;45.40;;;;;;5092997;28;20055;-67